world map with SKO marked

SKO - Airport

This information may not be accurate or current and is not valid for navigation or flight planning. No warranty of fitness for any purpose is made or implied.

flag of Nigeria

Donate via PayPal

Additional information is available on the NEW Great Circle Mapper

Location
City:  Sokoto, Sokoto, Nigeria
Name:Sadiq Abubakar III International Airport
ICAO / IATA:DNSO / SKO

Details
Type:Airport (Aerodrome, Airfield)
Latitude:12°54'59"N (12.916322)
Longitude:5°12'26"E (5.207189)
Datum:WGS 1984
Elevation:1010 ft (308 m)
Runways:1
Longest:9844 × 197 ft (3000 × 60 m)

Time
Timezone:UTC+1 (DST+3)
Local Time:

Weather
METAR:DNSO  (expired)
TAF:DNSO  192130Z 2000/2106 05008KT CAVOK

Related Locations
Nearby:
Farthest:WLS: 12351 mi / 19877 km
Wallis Island [Hihifo], WF

Find:

   beyond  
but within

Other Information
Maps:
Sources:

  


 


Great Circle Mapper   Great Circle Mapper
Great Circle Mapper FAQ   Great Circle Mapper FAQ
  Karl's Home Page
KLSē   KLSē Home
   GC on Facebook
Airlines of the World   Airlines of the World
Donate via PayPal


Copyright © 2004-2018, Karl L. Swartz. All rights reserved.
All trademarks mentioned herein belong to their respective owners.

Please see credits for attribution and copyright information.

Karl Swartz <karl@kls2.com>
  Powered by FreeBSD
Valid HTML 4.01!
Labeled with ICRA
hCard Microformat
Geo Microformat